Burlington, CO

10:47 AM MDT on May 30, 2015 (GMT -0600)
Burlington | | Change Station
CLOSE
Current Station
Personal Weather Station
Location: Burlington, CO
Elevation: 4167 ft
Nearby Weather Stations

Elev 4167 ft 39.30 °N, 102.26 °W | Updated 47 seconds ago

Overcast
Overcast
50.9 °F
Feels Like 50.9 °F
N
6.0
Wind Variable Wind from North
Gusts 8.3 mph

Today
High -- | Low -- °F
--% Chance of Precip.
Yesterday
High -- | Low -- °F
Precip. -- in
5:25 AM 8:08 PM
Waxing Gibbous, 91% visible
Pressure 30.32 in
Visibility 10.0 miles
Clouds Overcast 1100 ft
Dew Point 45 °F
Humidity 80%
Rainfall 0.00 in
Snow Depth Not available.
UV 3 out of 12
Pollen 7.30 out of 12
Air Quality Not available.
Flu Activity Sporadic
SPECI KITR 301632Z AUTO VRB05KT 10SM OVC011 10/07 A3032 RMK AO2 T01000067 $

More Conditions Fewer Conditions

Pressure 30.32 in
Visibility 10.0 miles
Clouds Overcast 1100 ft
Dew Point 45 °F
Humidity 80%
Rainfall 0.00 in
Snow Depth Not available.
UV 3 out of 12
Pollen 7.30 out of 12
Air Quality Not available.
Flu Activity Sporadic
SPECI KITR 301632Z AUTO VRB05KT 10SM OVC011 10/07 A3032 RMK AO2 T01000067 $

More Conditions Fewer Conditions

10-Day Weather Forecast

Almanac

Astronomy

May. 30, 2015 Rise Set
Actual Time
Civil Twilight
Nautical Twilight
Astronomical Twilight
Moon
Length of Visible Light
Length of Day
Tomorrow will be .
, % of the Moon is Illuminated

Today's Extremes

State Highs State Lows

Community

WunderPhotos

Upload Photos

1,825,566 photos uploaded!

WunderBlogs® & News

Nearby

Air Quality

  Air Quality AQ Index Pollutant
Not available.

Snow Depth

Station Depth Elevation

Earthquake Activity

City Distance Mag. Time & Date
Minimum magnitude displayed is 2.5.

Coastal Water Temperatures

Place Temperature

Stations

Nearby Weather Stations

Station Location Temp. Windchill Dew Point Humidity Wind Precip. Elev Updated Type